Time;durP1;ratioP1;P1;durP2;ratioP2;P2;SDS_P1;SDS_P2;PMS_P1;PMS_P2;Temp;Humidity;BMP_temperature;BMP_pressure;BME280_temperature;BME280_humidity;BME280_pressure;Samples;Min_cycle;Max_cycle;Signal;HPM_P1;HPM_P2
2024/02/11 00:00:16;;;;;;;47.80;22.20;;;;;;;11.10;100.00;96870.48;135639;1264;22537;-66
2024/02/11 00:03:39;;;;;;;44.70;22.40;;;;;;;11.04;100.00;96867.85;135653;1279;22562;-66
2024/02/11 00:06:42;;;;;;;;;;;;;;;10.97;100.00;96860.46;135621;1279;22518;-69
2024/02/11 00:09:44;;;;;;;45.90;21.90;;;;;;;11.00;100.00;96858.95;135597;1257;22526;-71
2024/02/11 00:12:47;;;;;;;47.10;22.40;;;;;;;10.93;100.00;96858.73;135626;1260;24206;-66
2024/02/11 00:15:49;;;;;;;44.30;22.70;;;;;;;11.08;100.00;96863.67;135625;1279;22592;-60
2024/02/11 00:18:52;;;;;;;50.30;23.70;;;;;;;10.96;100.00;96865.66;135599;1279;22558;-66
2024/02/11 00:21:55;;;;;;;;;;;;;;;10.93;100.00;96864.91;135645;1279;22521;-70
2024/02/11 00:24:57;;;;;;;45.50;22.70;;;;;;;10.95;100.00;96871.02;135620;1279;22548;-62
2024/02/11 00:28:00;;;;;;;;;;;;;;;11.00;100.00;96871.38;135622;1279;22546;-65
2024/02/11 00:31:03;;;;;;;49.80;23.60;;;;;;;11.00;100.00;96871.77;135596;1279;22545;-70
2024/02/11 00:34:06;;;;;;;48.10;23.00;;;;;;;11.06;100.00;96872.02;135593;1279;22540;-61
2024/02/11 00:37:11;;;;;;;54.40;26.20;;;;;;;11.06;100.00;96866.30;135434;1279;22563;-66
2024/02/11 00:40:14;;;;;;;51.20;24.60;;;;;;;10.97;100.00;96869.60;135647;1279;22571;-61
2024/02/11 00:43:37;;;;;;;48.30;22.60;;;;;;;11.08;100.00;96866.27;135613;1279;25464;-62
2024/02/11 00:46:40;;;;;;;48.00;24.30;;;;;;;11.15;100.00;96869.50;135642;1279;22829;-68
2024/02/11 00:49:43;;;;;;;44.20;22.20;;;;;;;11.06;100.00;96867.85;135626;1279;22603;-70
2024/02/11 00:52:49;;;;;;;48.90;22.40;;;;;;;11.03;100.00;96867.13;135545;1279;22567;-69
2024/02/11 00:55:51;;;;;;;43.10;21.40;;;;;;;11.15;100.00;96865.95;135317;1279;23318;-67
2024/02/11 00:58:56;;;;;;;46.00;21.90;;;;;;;11.08;100.00;96861.41;135599;1279;22785;-69
2024/02/11 01:01:59;;;;;;;44.70;22.30;;;;;;;11.07;100.00;96862.84;135646;1279;22564;-67
2024/02/11 01:05:03;;;;;;;41.50;20.70;;;;;;;11.18;100.00;96867.60;135586;1279;22470;-62
2024/02/11 01:08:06;;;;;;;48.30;22.00;;;;;;;11.27;100.00;96862.54;135632;1279;22529;-72
2024/02/11 01:11:08;;;;;;;43.70;21.20;;;;;;;11.27;100.00;96858.87;135602;1267;22555;-62
2024/02/11 01:14:11;;;;;;;45.40;21.90;;;;;;;11.26;100.00;96853.41;135627;1279;22539;-62
2024/02/11 01:17:14;;;;;;;;;;;;;;;11.22;100.00;96857.65;135592;1279;22518;-73
2024/02/11 01:20:17;;;;;;;51.50;23.20;;;;;;;11.23;100.00;96857.55;135626;1279;22527;-72
2024/02/11 01:23:19;;;;;;;44.90;22.20;;;;;;;11.26;100.00;96856.94;135559;1279;22560;-67
2024/02/11 01:26:22;;;;;;;50.40;22.80;;;;;;;11.17;100.00;96856.15;135633;1279;22540;-69
2024/02/11 01:29:25;;;;;;;;;;;;;;;11.25;100.00;96855.95;135630;1279;22510;-61
2024/02/11 01:32:27;;;;;;;45.20;22.50;;;;;;;11.22;100.00;96856.02;135611;1256;25489;-68
2024/02/11 01:35:30;;;;;;;43.60;21.30;;;;;;;11.18;100.00;96849.37;135547;1279;25358;-66
2024/02/11 01:38:32;;;;;;;46.00;21.80;;;;;;;11.25;100.00;96848.92;135519;1279;26244;-69
2024/02/11 01:41:35;;;;;;;;;;;;;;;11.26;100.00;96844.15;135479;1279;22910;-69
2024/02/11 01:44:37;;;;;;;45.30;21.60;;;;;;;11.33;100.00;96840.16;135484;1279;22791;-70
2024/02/11 01:47:40;;;;;;;44.40;21.00;;;;;;;11.33;100.00;96833.80;135636;1279;22542;-61
2024/02/11 01:50:43;;;;;;;45.50;21.70;;;;;;;11.31;100.00;96834.16;135485;1279;22558;-67
2024/02/11 01:53:48;;;;;;;47.30;22.60;;;;;;;11.37;100.00;96833.41;135513;1279;24391;-72
2024/02/11 01:56:51;;;;;;;45.20;21.40;;;;;;;11.29;100.00;96831.89;135633;1279;22562;-62
2024/02/11 01:59:54;;;;;;;44.60;21.30;;;;;;;11.30;100.00;96832.38;135670;1279;22552;-61
2024/02/11 02:02:56;;;;;;;43.70;20.90;;;;;;;11.21;100.00;96828.11;135584;1279;22585;-69
2024/02/11 02:05:59;;;;;;;47.00;21.70;;;;;;;11.23;100.00;96826.04;135479;1279;22565;-62
2024/02/11 02:09:02;;;;;;;;;;;;;;;11.30;100.00;96819.55;135650;1279;22540;-69
2024/02/11 02:12:06;;;;;;;45.20;21.60;;;;;;;11.31;100.00;96820.52;135660;1279;24353;-63
2024/02/11 02:15:09;;;;;;;46.20;21.90;;;;;;;11.35;100.00;96814.56;135598;1279;22537;-69
2024/02/11 02:18:12;;;;;;;47.50;23.00;;;;;;;11.36;100.00;96807.84;135573;1279;22545;-66
2024/02/11 02:21:16;;;;;;;41.80;20.50;;;;;;;11.31;100.00;96807.37;135582;1279;22534;-65
2024/02/11 02:24:19;;;;;;;47.50;21.70;;;;;;;11.26;100.00;96807.34;135611;1279;23010;-63
2024/02/11 02:27:22;;;;;;;43.70;21.50;;;;;;;11.17;100.00;96807.02;135645;1279;22532;-61
2024/02/11 02:30:24;;;;;;;46.40;22.10;;;;;;;11.12;100.00;96804.89;135463;1279;25348;-70
2024/02/11 02:33:28;;;;;;;;;;;;;;;11.09;100.00;96803.02;135552;1279;24276;-70
2024/02/11 02:36:31;;;;;;;45.70;21.70;;;;;;;11.24;100.00;96803.88;135429;1279;22532;-62
2024/02/11 02:39:33;;;;;;;;;;;;;;;11.33;100.00;96810.38;135674;1279;24294;-63
2024/02/11 02:42:36;;;;;;;60.50;26.80;;;;;;;11.37;100.00;96808.81;135573;1279;22619;-63
2024/02/11 02:45:38;;;;;;;48.20;22.30;;;;;;;11.32;100.00;96808.73;135617;1279;22646;-61
2024/02/11 02:48:41;;;;;;;;;;;;;;;11.22;100.00;96803.34;135606;1279;22509;-68
2024/02/11 02:51:44;;;;;;;42.80;20.10;;;;;;;11.12;100.00;96794.20;135631;1279;22549;-62
2024/02/11 02:54:49;;;;;;;46.70;22.20;;;;;;;10.96;100.00;96791.39;135417;1279;24275;-61
2024/02/11 02:57:52;;;;;;;47.40;21.60;;;;;;;10.92;100.00;96792.98;135466;1279;22559;-69
2024/02/11 03:00:54;;;;;;;43.50;21.30;;;;;;;11.01;100.00;96789.15;135631;1279;22534;-61
2024/02/11 03:03:57;;;;;;;44.80;22.80;;;;;;;11.09;100.00;96786.92;135620;1279;22585;-61
2024/02/11 03:06:59;;;;;;;43.50;19.80;;;;;;;11.18;100.00;96787.13;135605;1279;22532;-62
2024/02/11 03:10:04;;;;;;;;;;;;;;;11.23;100.00;96789.66;135624;1279;22523;-68
2024/02/11 03:13:07;;;;;;;42.90;20.20;;;;;;;11.25;100.00;96791.73;135594;1279;22535;-69
2024/02/11 03:16:09;;;;;;;;;;;;;;;11.30;100.00;96793.53;135541;1279;24228;-68
2024/02/11 03:19:13;;;;;;;43.30;18.30;;;;;;;11.50;100.00;96798.77;135594;1262;24218;-68
2024/02/11 03:22:16;;;;;;;42.30;20.30;;;;;;;11.57;100.00;96807.92;135412;1279;22538;-68
2024/02/11 03:25:19;;;;;;;;;;;;;;;11.60;100.00;96816.20;135454;1279;22513;-65
2024/02/11 03:28:21;;;;;;;46.60;20.00;;;;;;;11.52;100.00;96805.88;135566;1279;22539;-63
2024/02/11 03:31:25;;;;;;;;;;;;;;;11.51;100.00;96810.40;135624;1279;22525;-69
2024/02/11 03:34:28;;;;;;;40.40;18.10;;;;;;;11.59;100.00;96807.52;135594;1279;22547;-61
2024/02/11 03:37:33;;;;;;;;;;;;;;;11.48;100.00;96804.20;135610;1260;22667;-60
2024/02/11 03:40:36;;;;;;;39.80;18.00;;;;;;;11.49;100.00;96805.88;135293;1279;23065;-67
2024/02/11 03:43:39;;;;;;;;;;;;;;;11.43;100.00;96800.27;135425;1279;22518;-72
2024/02/11 03:46:41;;;;;;;44.30;18.70;;;;;;;11.42;100.00;96794.77;135633;1256;24359;-67
2024/02/11 03:49:44;;;;;;;37.30;17.40;;;;;;;11.45;100.00;96789.11;135609;1260;22605;-62
2024/02/11 03:52:46;;;;;;;37.60;16.50;;;;;;;11.44;100.00;96784.84;135544;1262;22575;-68
2024/02/11 03:55:49;;;;;;;38.80;16.70;;;;;;;11.39;100.00;96778.19;135457;1261;22540;-63
2024/02/11 03:58:51;;;;;;;;;;;;;;;11.28;100.00;96771.51;135628;1279;24378;-64
2024/02/11 04:01:54;;;;;;;37.90;16.50;;;;;;;11.16;100.00;96769.88;135590;1279;22540;-68
2024/02/11 04:04:57;;;;;;;;;;;;;;;11.08;100.00;96773.92;135615;1279;24248;-60
2024/02/11 04:08:01;;;;;;;38.80;17.10;;;;;;;11.38;100.00;96774.01;135394;1256;24238;-60
2024/02/11 04:11:04;;;;;;;40.00;16.40;;;;;;;11.42;100.00;96775.03;135648;1279;22699;-69
2024/02/11 04:14:09;;;;;;;34.50;15.10;;;;;;;11.37;100.00;96771.84;135608;1279;22552;-68
2024/02/11 04:17:13;;;;;;;37.90;16.10;;;;;;;11.44;100.00;96770.60;135333;1279;22599;-60
2024/02/11 04:20:23;;;;;;;36.50;16.10;;;;;;;11.61;100.00;96764.05;135337;1279;24378;-68
2024/02/11 04:23:27;;;;;;;38.80;15.80;;;;;;;11.52;100.00;96761.48;135616;1279;22535;-70
2024/02/11 04:26:30;;;;;;;37.70;15.90;;;;;;;11.54;100.00;96758.99;135608;1279;22645;-65
2024/02/11 04:29:33;;;;;;;35.70;16.50;;;;;;;11.48;100.00;96754.19;135586;1279;22526;-68
2024/02/11 04:32:35;;;;;;;;;;;;;;;11.41;100.00;96746.61;135569;1279;22568;-61
2024/02/11 04:35:39;;;;;;;36.10;15.50;;;;;;;11.27;100.00;96738.47;135590;1279;22535;-70
2024/02/11 04:38:44;;;;;;;41.00;16.60;;;;;;;11.18;100.00;96736.64;135566;1279;22542;-67
2024/02/11 04:41:47;;;;;;;38.50;16.40;;;;;;;11.13;100.00;96736.58;135578;1279;22539;-61
2024/02/11 04:44:51;;;;;;;40.60;16.90;;;;;;;11.10;100.00;96735.96;135593;1262;22562;-72
2024/02/11 04:47:54;;;;;;;37.40;16.70;;;;;;;11.18;100.00;96734.31;135608;1279;22539;-61
2024/02/11 04:50:57;;;;;;;38.30;15.80;;;;;;;11.20;100.00;96728.69;135596;1279;22539;-70
2024/02/11 04:54:02;;;;;;;34.80;15.60;;;;;;;11.26;100.00;96723.37;135328;1279;25373;-62
2024/02/11 04:57:04;;;;;;;34.30;16.20;;;;;;;11.28;100.00;96720.73;135611;1279;22832;-69
2024/02/11 05:00:10;;;;;;;;;;;;;;;11.19;100.00;96716.25;135604;1279;22569;-62
2024/02/11 05:03:17;;;;;;;36.20;15.10;;;;;;;11.20;100.00;96718.33;135593;1279;22529;-61
2024/02/11 05:06:23;;;;;;;39.20;16.40;;;;;;;11.03;100.00;96712.81;135566;1279;22536;-71
2024/02/11 05:09:27;;;;;;;43.10;17.90;;;;;;;11.09;100.00;96706.87;135611;1279;22555;-61
2024/02/11 05:12:30;;;;;;;41.90;16.60;;;;;;;11.06;100.00;96704.48;135596;1279;22554;-73
2024/02/11 05:15:33;;;;;;;39.10;16.10;;;;;;;11.09;100.00;96704.61;135609;1279;22565;-67
2024/02/11 05:18:36;;;;;;;36.80;15.80;;;;;;;11.00;100.00;96698.97;135615;1279;22654;-70
2024/02/11 05:21:39;;;;;;;38.90;15.40;;;;;;;10.94;100.00;96699.50;135598;1279;22674;-64
2024/02/11 05:24:41;;;;;;;37.00;14.50;;;;;;;11.06;100.00;96699.93;135525;1279;22773;-66
2024/02/11 05:27:44;;;;;;;36.30;15.10;;;;;;;11.12;100.00;96692.86;135591;1279;22728;-61
2024/02/11 05:30:48;;;;;;;31.20;13.60;;;;;;;11.03;100.00;96688.21;135619;1279;22621;-70
2024/02/11 05:33:51;;;;;;;34.10;13.80;;;;;;;11.02;100.00;96687.95;135521;1279;22551;-66
2024/02/11 05:36:55;;;;;;;;;;;;;;;11.08;100.00;96684.89;135617;1279;22510;-62
2024/02/11 05:39:58;;;;;;;38.10;13.90;;;;;;;11.19;100.00;96683.88;135448;1279;22662;-68
2024/02/11 05:43:01;;;;;;;33.60;13.80;;;;;;;11.22;100.00;96679.81;135336;1279;22543;-61
2024/02/11 05:46:05;;;;;;;;;;;;;;;11.19;100.00;96678.23;135452;1279;22519;-68
2024/02/11 05:49:08;;;;;;;30.70;13.00;;;;;;;11.07;100.00;96680.77;135570;1279;22548;-71
2024/02/11 05:52:11;;;;;;;37.50;13.10;;;;;;;11.14;100.00;96679.60;135591;1279;22551;-72
2024/02/11 05:55:16;;;;;;;32.20;11.20;;;;;;;11.21;100.00;96672.09;135596;1279;25334;-68
2024/02/11 05:58:19;;;;;;;30.40;12.60;;;;;;;11.22;100.00;96666.54;135635;1279;22702;-64
2024/02/11 06:01:22;;;;;;;34.30;13.00;;;;;;;11.30;100.00;96668.23;135645;1279;25354;-61
2024/02/11 06:04:26;;;;;;;30.90;12.30;;;;;;;11.17;100.00;96671.40;135608;1279;23975;-60
2024/02/11 06:07:29;;;;;;;;;;;;;;;11.32;100.00;96672.24;135331;1279;22600;-71
2024/02/11 06:10:33;;;;;;;31.60;12.30;;;;;;;11.38;100.00;96671.55;135615;1279;22532;-62
2024/02/11 06:13:36;;;;;;;35.60;12.70;;;;;;;11.34;100.00;96675.71;135621;1279;23122;-66
2024/02/11 06:16:39;;;;;;;29.20;12.40;;;;;;;11.35;100.00;96676.83;135442;1262;22538;-71
2024/02/11 06:19:42;;;;;;;;;;;;;;;11.31;100.00;96677.23;135590;1262;22529;-72
2024/02/11 06:22:46;;;;;;;37.60;13.90;;;;;;;11.31;100.00;96677.26;135628;1279;22568;-70
2024/02/11 06:25:52;;;;;;;31.00;12.20;;;;;;;11.27;100.00;96679.33;135630;1279;22532;-70
2024/02/11 06:28:55;;;;;;;31.50;11.40;;;;;;;11.29;100.00;96676.23;135586;1279;22546;-69
2024/02/11 06:31:59;;;;;;;28.70;12.20;;;;;;;11.34;100.00;96674.31;135613;1279;22542;-70
2024/02/11 06:35:02;;;;;;;28.80;11.70;;;;;;;11.38;100.00;96675.15;135607;1279;22529;-70
2024/02/11 06:38:04;;;;;;;33.20;12.20;;;;;;;11.41;100.00;96676.41;135598;1279;22536;-61
2024/02/11 06:41:07;;;;;;;;;;;;;;;11.46;100.00;96675.62;135593;1279;25343;-67
2024/02/11 06:44:12;;;;;;;29.70;11.60;;;;;;;11.50;100.00;96674.17;135636;1279;22726;-70
2024/02/11 06:47:15;;;;;;;31.60;12.10;;;;;;;11.48;100.00;96675.58;135608;1279;22544;-68
2024/02/11 06:50:20;;;;;;;30.00;11.10;;;;;;;11.45;100.00;96675.51;135573;1262;22532;-62
2024/02/11 06:53:23;;;;;;;28.60;10.80;;;;;;;11.62;100.00;96680.36;135598;1279;22536;-65
2024/02/11 06:56:27;;;;;;;27.80;10.30;;;;;;;11.76;100.00;96682.42;135604;1279;22532;-69
2024/02/11 06:59:30;;;;;;;33.30;11.20;;;;;;;11.80;100.00;96685.59;135600;1271;24273;-68
2024/02/11 07:02:34;;;;;;;;;;;;;;;11.82;100.00;96682.52;135617;1279;22619;-67
2024/02/11 07:05:38;;;;;;;40.60;14.30;;;;;;;11.89;100.00;96679.75;135642;1279;22549;-69
2024/02/11 07:08:43;;;;;;;39.10;13.90;;;;;;;11.95;100.00;96674.65;135612;1262;24206;-72
2024/02/11 07:11:45;;;;;;;41.70;14.50;;;;;;;11.97;100.00;96674.05;135625;1279;25396;-67
2024/02/11 07:14:48;;;;;;;36.20;13.80;;;;;;;12.01;100.00;96674.73;135596;1279;25396;-60
2024/02/11 07:17:50;;;;;;;;;;;;;;;11.99;100.00;96676.15;135543;1279;24160;-65
2024/02/11 07:20:53;;;;;;;29.90;12.30;;;;;;;12.04;100.00;96672.14;135591;1279;22783;-62
2024/02/11 07:23:56;;;;;;;;;;;;;;;12.08;100.00;96671.60;135642;1279;22531;-69
2024/02/11 07:26:58;;;;;;;;;;;;;;;11.97;100.00;96677.35;135579;1279;25465;-68
2024/02/11 07:30:01;;;;;;;30.00;10.90;;;;;;;11.94;100.00;96678.16;135650;1279;22754;-71
2024/02/11 07:33:04;;;;;;;27.10;10.60;;;;;;;11.95;100.00;96677.92;135623;1279;22533;-67
2024/02/11 07:36:07;;;;;;;;;;;;;;;12.01;100.00;96679.34;135649;1279;22504;-63
2024/02/11 07:39:15;;;;;;;28.80;9.80;;;;;;;12.05;100.00;96678.88;135597;1279;22525;-60
2024/02/11 07:42:18;;;;;;;29.40;9.50;;;;;;;12.06;100.00;96678.65;135531;1279;22657;-60
2024/02/11 07:45:20;;;;;;;26.10;9.10;;;;;;;12.08;100.00;96681.39;135427;1279;22591;-68
2024/02/11 07:48:23;;;;;;;;;;;;;;;12.07;100.00;96683.23;135513;1279;22510;-64
2024/02/11 07:51:25;;;;;;;30.30;10.60;;;;;;;12.19;100.00;96683.44;135609;1279;22539;-68
2024/02/11 07:54:29;;;;;;;;;;;;;;;12.21;100.00;96683.02;78581;1279;1016467;-68
2024/02/11 07:57:31;;;;;;;24.60;9.30;;;;;;;12.20;100.00;96680.93;67782;1279;1016485;-67
2024/02/11 08:00:42;;;;;;;27.80;8.90;;;;;;;12.25;100.00;96688.45;65193;1279;6365105;-61
2024/02/11 08:03:47;;;;;;;23.20;7.70;;;;;;;12.36;100.00;96687.92;67740;1279;1016402;-60
2024/02/11 08:06:50;;;;;;;24.50;8.80;;;;;;;12.41;100.00;96689.98;67737;1279;1016582;-60
2024/02/11 08:09:53;;;;;;;;;;;;;;;12.49;100.00;96690.08;67748;1279;1016442;-62
2024/02/11 08:12:56;;;;;;;;;;;;;;;12.55;100.00;96689.09;67816;1279;1016336;-64
2024/02/11 08:15:58;;;;;;;27.00;7.60;;;;;;;12.66;100.00;96689.35;67731;1279;1016545;-61
2024/02/11 08:19:03;;;;;;;23.80;7.40;;;;;;;12.79;100.00;96689.56;67721;1279;1016299;-68
2024/02/11 08:22:06;;;;;;;25.50;7.60;;;;;;;12.92;100.00;96688.08;67787;1279;1017583;-64
2024/02/11 08:25:10;;;;;;;22.80;7.50;;;;;;;13.02;100.00;96681.86;67755;1279;1016373;-61
2024/02/11 08:28:13;;;;;;;23.50;7.60;;;;;;;13.00;100.00;96679.84;67670;1279;1017725;-61
2024/02/11 08:31:16;;;;;;;;;;;;;;;13.14;100.00;96681.23;67779;1279;1016839;-67
2024/02/11 08:34:19;;;;;;;24.10;8.00;;;;;;;13.13;100.00;96679.91;67758;1279;1016235;-60
2024/02/11 08:37:22;;;;;;;19.70;6.50;;;;;;;13.12;100.00;96677.91;67757;1279;1016235;-68
2024/02/11 08:40:25;;;;;;;24.90;7.40;;;;;;;13.23;100.00;96677.09;67745;1279;1016533;-61
2024/02/11 08:43:27;;;;;;;23.90;7.10;;;;;;;13.20;100.00;96677.39;67723;1279;1016284;-64
2024/02/11 08:46:30;;;;;;;23.70;6.40;;;;;;;13.24;100.00;96674.55;67756;1279;1016224;-60
2024/02/11 08:49:33;;;;;;;22.10;6.90;;;;;;;13.22;100.00;96672.98;67800;1279;1018035;-64
2024/02/11 08:52:36;;;;;;;21.60;7.00;;;;;;;13.14;100.00;96673.77;67748;1279;1016456;-65
2024/02/11 08:55:39;;;;;;;22.20;7.10;;;;;;;13.20;100.00;96672.69;67784;1279;1016613;-65
2024/02/11 08:58:42;;;;;;;21.70;7.10;;;;;;;13.25;100.00;96675.67;67704;1279;1016410;-68
2024/02/11 09:01:45;;;;;;;20.70;6.40;;;;;;;13.31;100.00;96674.09;67824;1279;1016434;-62
2024/02/11 09:04:48;;;;;;;22.80;6.40;;;;;;;13.40;100.00;96672.17;67728;1279;1016563;-68
2024/02/11 09:07:50;;;;;;;22.70;6.70;;;;;;;13.47;100.00;96675.59;67791;1279;1016469;-68
2024/02/11 09:10:53;;;;;;;;;;;;;;;13.55;100.00;96680.80;67796;1279;1018522;-68
2024/02/11 09:13:57;;;;;;;20.90;6.40;;;;;;;13.72;100.00;96679.32;67745;1279;1017805;-68
2024/02/11 09:17:00;;;;;;;18.40;6.20;;;;;;;13.79;100.00;96679.61;67751;1279;1016426;-67
2024/02/11 09:20:04;;;;;;;19.50;6.20;;;;;;;13.83;100.00;96680.80;67767;1279;1018079;-68
2024/02/11 09:23:07;;;;;;;26.10;6.90;;;;;;;13.83;100.00;96681.61;67753;1279;1017514;-68
2024/02/11 09:26:10;;;;;;;;;;;;;;;13.93;100.00;96685.52;67787;1279;1016806;-67
2024/02/11 09:29:12;;;;;;;22.40;6.90;;;;;;;14.13;100.00;96688.45;67786;1279;1016426;-68
2024/02/11 09:32:16;;;;;;;21.80;6.80;;;;;;;14.23;100.00;96687.06;67787;1279;1016362;-68
2024/02/11 09:35:21;;;;;;;23.20;7.40;;;;;;;14.31;100.00;96685.05;67802;1279;1016461;-68
2024/02/11 09:38:23;;;;;;;24.00;7.30;;;;;;;14.32;100.00;96686.73;67728;1279;1020072;-60
2024/02/11 09:41:28;;;;;;;25.50;7.40;;;;;;;14.41;100.00;96686.23;67775;1279;1016324;-67
2024/02/11 09:44:31;;;;;;;25.30;7.70;;;;;;;14.46;100.00;96684.92;67785;1279;1016454;-65
2024/02/11 09:47:33;;;;;;;27.40;7.40;;;;;;;14.58;100.00;96680.11;67757;1279;1018789;-68
2024/02/11 09:50:36;;;;;;;;;;;;;;;14.56;100.00;96675.77;67721;1279;1016448;-67
2024/02/11 09:53:40;;;;;;;22.30;6.20;;;;;;;14.50;100.00;96672.42;67758;1279;1016308;-68
2024/02/11 09:56:43;;;;;;;19.60;6.10;;;;;;;14.52;100.00;96666.48;67765;1279;1017940;-68
2024/02/11 09:59:46;;;;;;;19.30;6.20;;;;;;;14.59;100.00;96666.77;67751;1279;1016802;-67
2024/02/11 10:02:49;;;;;;;22.00;7.00;;;;;;;14.54;100.00;96680.79;67807;1279;1016573;-68
2024/02/11 10:05:51;;;;;;;;;;;;;;;14.51;100.00;96687.23;67757;1279;1016452;-68
2024/02/11 10:08:54;;;;;;;20.80;6.40;;;;;;;14.51;100.00;96688.47;67713;1279;1016294;-65
2024/02/11 10:11:57;;;;;;;;;;;;;;;14.46;100.00;96690.24;67805;1279;1016860;-68
2024/02/11 10:15:00;;;;;;;21.40;6.40;;;;;;;14.45;100.00;96683.77;67808;1279;1016469;-68
2024/02/11 10:18:04;;;;;;;21.20;5.90;;;;;;;14.50;100.00;96683.63;67777;1279;1016505;-69
2024/02/11 10:21:08;;;;;;;21.10;6.40;;;;;;;14.55;100.00;96686.57;67791;1279;1016208;-68
2024/02/11 10:24:10;;;;;;;24.80;6.80;;;;;;;14.63;99.67;96687.00;67756;1279;1016806;-68
2024/02/11 10:27:14;;;;;;;20.80;6.40;;;;;;;14.62;99.90;96682.31;67773;1279;1016530;-67
2024/02/11 10:30:17;;;;;;;24.00;6.90;;;;;;;14.66;100.00;96679.58;67771;1279;1016509;-68
2024/02/11 10:33:20;;;;;;;;;;;;;;;14.69;99.87;96681.14;67759;1279;1016452;-61
2024/02/11 10:36:22;;;;;;;21.10;6.30;;;;;;;14.59;100.00;96680.34;67735;1279;1016301;-67
2024/02/11 10:39:26;;;;;;;23.70;6.80;;;;;;;14.59;100.00;96676.17;67808;1279;1016291;-66
2024/02/11 10:42:28;;;;;;;22.00;6.70;;;;;;;14.64;100.00;96673.81;67749;1279;1016519;-68
2024/02/11 10:45:32;;;;;;;22.40;6.80;;;;;;;14.69;100.00;96671.71;67811;1279;1016468;-67
2024/02/11 10:48:34;;;;;;;20.90;6.20;;;;;;;14.62;100.00;96668.61;67750;1279;1016369;-65
2024/02/11 10:51:38;;;;;;;;;;;;;;;14.57;100.00;96665.83;67761;1279;1018144;-62
2024/02/11 10:54:41;;;;;;;22.50;6.20;;;;;;;14.57;99.51;96662.48;67725;1279;1016324;-61
2024/02/11 10:57:44;;;;;;;21.20;6.30;;;;;;;14.50;99.73;96660.39;67773;1279;1016587;-61
2024/02/11 11:00:46;;;;;;;22.20;6.40;;;;;;;14.46;99.93;96658.02;67759;1279;1016216;-61
2024/02/11 11:03:49;;;;;;;;;;;;;;;14.48;100.00;96653.30;67731;1279;1017089;-68
2024/02/11 11:06:52;;;;;;;22.80;6.70;;;;;;;14.56;100.00;96649.88;67790;1279;1016508;-68
2024/02/11 11:09:54;;;;;;;;;;;;;;;14.42;100.00;96645.25;67722;1279;1016500;-61
2024/02/11 11:12:57;;;;;;;22.00;6.70;;;;;;;14.44;100.00;96642.96;67623;1279;1018445;-68
2024/02/11 11:16:00;;;;;;;19.70;6.10;;;;;;;14.39;100.00;96633.30;67763;1279;1016352;-61
2024/02/11 11:19:02;;;;;;;20.90;6.30;;;;;;;14.23;100.00;96630.02;67746;1279;1016472;-68
2024/02/11 11:22:08;;;;;;;;;;;;;;;14.30;100.00;96630.95;67767;1279;1016349;-67
2024/02/11 11:25:11;;;;;;;21.70;6.40;;;;;;;14.29;100.00;96633.19;67703;1279;1016412;-68
2024/02/11 11:28:15;;;;;;;21.30;6.20;;;;;;;14.28;100.00;96632.48;67730;1279;1016507;-68
2024/02/11 11:31:18;;;;;;;;;;;;;;;14.37;100.00;96631.46;67731;1279;1016463;-68
2024/02/11 11:34:21;;;;;;;30.20;9.60;;;;;;;14.32;100.00;96629.36;67778;1279;1016542;-68
2024/02/11 11:37:24;;;;;;;28.70;9.00;;;;;;;14.31;100.00;96627.16;67802;1279;1016572;-68
2024/02/11 11:40:28;;;;;;;27.50;8.50;;;;;;;14.41;100.00;96627.98;67771;1279;1018231;-67
2024/02/11 11:43:32;;;;;;;24.10;7.90;;;;;;;14.53;100.00;96633.04;67754;1279;1017198;-68
2024/02/11 11:46:35;;;;;;;22.10;7.60;;;;;;;14.56;100.00;96630.15;67713;1279;1016443;-67
2024/02/11 11:49:38;;;;;;;21.90;6.90;;;;;;;14.63;100.00;96636.27;67704;1279;1016333;-68
2024/02/11 11:52:42;;;;;;;;;;;;;;;14.78;100.00;96636.53;67773;1279;1016086;-68
2024/02/11 11:55:46;;;;;;;23.10;6.80;;;;;;;14.88;100.00;96629.79;67709;1279;1016538;-64
2024/02/11 11:58:50;;;;;;;21.40;6.20;;;;;;;15.01;100.00;96630.76;67750;1279;1016395;-67
2024/02/11 12:01:53;;;;;;;21.40;6.70;;;;;;;15.11;100.00;96628.61;67743;1279;1016132;-68
2024/02/11 12:04:56;;;;;;;21.40;6.10;;;;;;;15.37;100.00;96627.56;67794;1279;1017093;-61
2024/02/11 12:07:59;;;;;;;;;;;;;;;15.47;99.95;96621.22;67728;1279;1019385;-68
2024/02/11 12:11:03;;;;;;;21.70;5.80;;;;;;;15.49;100.00;96617.89;67760;1279;1016413;-68
2024/02/11 12:14:06;;;;;;;18.30;5.50;;;;;;;15.68;99.71;96616.42;67759;1279;1016206;-63
2024/02/11 12:17:09;;;;;;;19.80;5.60;;;;;;;15.73;98.91;96615.64;67821;1279;1016488;-61
2024/02/11 12:20:12;;;;;;;19.20;5.70;;;;;;;15.70;98.49;96610.36;67786;1279;1016461;-68
2024/02/11 12:23:16;;;;;;;20.90;5.10;;;;;;;15.67;95.25;96612.84;67735;1279;1016908;-66
2024/02/11 12:26:19;;;;;;;19.70;5.50;;;;;;;15.76;94.73;96607.77;67734;1279;1016492;-68
2024/02/11 12:29:22;;;;;;;17.10;5.00;;;;;;;15.87;94.36;96602.98;67784;1279;1018650;-68
2024/02/11 12:32:24;;;;;;;19.20;5.80;;;;;;;15.83;92.74;96602.36;67793;1279;1016401;-69
2024/02/11 12:35:27;;;;;;;;;;;;;;;15.80;93.33;96600.74;67777;1279;1016294;-61
2024/02/11 12:38:30;;;;;;;20.30;5.50;;;;;;;15.84;93.14;96599.91;67753;1279;1016291;-68
2024/02/11 12:41:36;;;;;;;;;;;;;;;15.80;93.14;96597.61;67791;1279;1017209;-63
2024/02/11 12:44:39;;;;;;;21.70;6.30;;;;;;;15.82;94.16;96597.59;67771;1279;1016041;-61
2024/02/11 12:47:42;;;;;;;;;;;;;;;15.47;99.26;96592.08;67721;1279;1016535;-68
2024/02/11 12:50:44;;;;;;;20.10;5.70;;;;;;;15.30;99.40;96593.55;67783;1279;1016378;-67
2024/02/11 12:53:48;;;;;;;21.60;6.10;;;;;;;15.37;96.87;96594.71;67799;1279;1016440;-68
2024/02/11 12:56:51;;;;;;;19.00;6.00;;;;;;;15.47;96.33;96592.14;67808;1279;1016276;-68
2024/02/11 12:59:56;;;;;;;21.80;5.90;;;;;;;15.45;97.59;96592.89;67726;1279;1016360;-61
2024/02/11 13:02:58;;;;;;;18.40;5.80;;;;;;;15.48;95.72;96590.79;67782;1279;1016475;-62
2024/02/11 13:06:01;;;;;;;17.90;5.70;;;;;;;15.38;96.56;96587.67;67764;1279;1016470;-68
2024/02/11 13:09:04;;;;;;;23.20;6.20;;;;;;;15.29;97.85;96591.34;67733;1279;1016494;-68
2024/02/11 13:12:08;;;;;;;20.00;5.90;;;;;;;15.26;98.16;96588.13;67790;1279;1016044;-61
2024/02/11 13:15:10;;;;;;;19.60;5.90;;;;;;;15.14;99.22;96588.98;67667;1279;1016301;-68
2024/02/11 13:18:14;;;;;;;23.00;6.90;;;;;;;15.12;98.74;96587.73;67692;1279;1016480;-61
2024/02/11 13:21:17;;;;;;;21.10;6.00;;;;;;;15.10;98.41;96590.41;67827;1279;1016412;-61
2024/02/11 13:24:20;;;;;;;22.50;6.40;;;;;;;15.01;99.37;96588.40;67749;1279;1019206;-68
2024/02/11 13:27:23;;;;;;;21.10;6.10;;;;;;;14.90;100.00;96590.66;67734;1279;1016293;-68
2024/02/11 13:30:25;;;;;;;22.70;7.10;;;;;;;14.85;100.00;96588.42;67743;1279;1016417;-65
2024/02/11 13:33:31;;;;;;;22.70;7.50;;;;;;;14.90;100.00;96588.42;67715;1279;1018712;-68
2024/02/11 13:36:34;;;;;;;26.30;7.90;;;;;;;14.96;100.00;96585.98;67724;1279;1016916;-65
2024/02/11 13:39:37;;;;;;;19.50;6.20;;;;;;;15.12;99.38;96586.96;67676;1257;1019035;-61
2024/02/11 13:42:40;;;;;;;20.60;6.70;;;;;;;15.18;98.46;96587.43;67771;1279;1016673;-61
2024/02/11 13:45:43;;;;;;;21.70;7.00;;;;;;;15.18;99.06;96586.68;67767;1279;1016505;-68
2024/02/11 13:48:45;;;;;;;20.10;6.10;;;;;;;15.03;99.67;96584.61;67756;1279;1016446;-65
2024/02/11 13:51:48;;;;;;;21.80;6.90;;;;;;;14.87;99.95;96585.02;67704;1279;1016226;-65
2024/02/11 13:54:51;;;;;;;;;;;;;;;14.85;99.97;96581.08;67805;1279;1016108;-68
2024/02/11 13:57:53;;;;;;;19.10;5.00;;;;;;;14.89;99.99;96583.02;67796;1279;1016436;-68
2024/02/11 14:00:57;;;;;;;;;;;;;;;14.88;100.00;96582.27;67756;1279;1016356;-67